createdAt,value
2019-05-18T00:01:28.215Z,36.03
2019-05-18T00:03:57.713Z,34.98
2019-05-18T00:06:27.219Z,38.40
2019-05-18T00:08:56.740Z,36.80
2019-05-18T00:11:26.239Z,37.23
2019-05-18T00:13:57.355Z,37.20
2019-05-18T00:16:26.862Z,38.30
2019-05-18T00:18:56.372Z,38.28
2019-05-18T00:21:25.867Z,38.00
2019-05-18T00:23:55.387Z,38.40
2019-05-18T00:26:24.878Z,37.17
2019-05-18T00:28:54.401Z,37.73
2019-05-18T00:31:24.069Z,38.37
2019-05-18T00:33:53.578Z,38.45
2019-05-18T00:36:23.082Z,38.80
2019-05-18T00:38:52.584Z,37.70
2019-05-18T00:41:22.228Z,40.43
2019-05-18T00:43:51.906Z,40.45
2019-05-18T00:46:21.401Z,38.28
2019-05-18T00:48:50.910Z,41.35
2019-05-18T00:51:23.160Z,39.88
2019-05-18T00:53:51.606Z,42.40
2019-05-18T00:56:21.133Z,39.27
2019-05-18T00:58:50.620Z,41.55
2019-05-18T01:01:20.174Z,40.73
2019-05-18T01:03:49.669Z,40.10
2019-05-18T01:06:19.181Z,39.33
2019-05-18T01:08:48.690Z,41.88
2019-05-18T01:11:18.195Z,39.88
2019-05-18T01:13:47.708Z,41.02
2019-05-18T01:16:17.218Z,41.15
2019-05-18T01:18:46.713Z,41.70
2019-05-18T01:21:17.217Z,41.90
2019-05-18T01:23:46.800Z,42.25
2019-05-18T01:26:16.432Z,39.95
2019-05-18T01:28:45.950Z,44.18
2019-05-18T01:31:15.505Z,43.30
2019-05-18T01:33:45.039Z,44.03
2019-05-18T01:36:14.600Z,44.70
2019-05-18T01:38:44.125Z,43.20
2019-05-18T01:41:13.668Z,42.05
2019-05-18T01:43:43.202Z,42.00
2019-05-18T01:46:12.733Z,41.08
2019-05-18T01:48:42.250Z,44.85
2019-05-18T01:51:11.775Z,44.00
2019-05-18T01:53:41.309Z,43.30
2019-05-18T01:56:10.924Z,43.60
2019-05-18T01:58:40.442Z,43.03
2019-05-18T02:01:10.046Z,44.07
2019-05-18T02:03:39.571Z,44.10
2019-05-18T02:06:09.122Z,46.27
2019-05-18T02:08:38.635Z,47.30
2019-05-18T02:11:08.257Z,46.90
2019-05-18T02:13:37.786Z,45.70
2019-05-18T02:16:07.380Z,48.00
2019-05-18T02:18:36.881Z,47.90
2019-05-18T02:21:06.470Z,49.05
2019-05-18T02:23:35.976Z,46.48
2019-05-18T02:26:05.512Z,48.73
2019-05-18T02:28:35.051Z,48.50
2019-05-18T02:31:04.643Z,51.18
2019-05-18T02:33:34.158Z,49.27
2019-05-18T02:36:03.678Z,49.35
2019-05-18T02:38:33.203Z,47.25
2019-05-18T02:41:02.730Z,48.25
2019-05-18T02:43:32.353Z,47.58
2019-05-18T02:46:01.872Z,48.20
2019-05-18T02:48:47.900Z,49.25
2019-05-18T02:51:02.619Z,47.78
2019-05-18T02:53:32.136Z,48.10
2019-05-18T02:56:01.665Z,46.43
2019-05-18T02:58:31.195Z,47.13
2019-05-18T03:01:00.730Z,46.25
2019-05-18T03:03:30.266Z,47.05
2019-05-18T03:05:59.781Z,44.73
2019-05-18T03:08:29.298Z,44.40
2019-05-18T03:10:58.835Z,41.83
2019-05-18T03:13:28.376Z,44.20
2019-05-18T03:15:57.914Z,43.10
2019-05-18T03:18:27.419Z,38.98
2019-05-18T03:20:57.019Z,39.95
2019-05-18T03:23:26.528Z,37.98
2019-05-18T03:25:56.059Z,42.15
2019-05-18T03:28:25.564Z,39.73
2019-05-18T03:30:55.073Z,38.90
2019-05-18T03:33:29.056Z,38.57
2019-05-18T03:35:55.851Z,39.33
2019-05-18T03:38:25.369Z,40.00
2019-05-18T03:40:54.901Z,41.07
2019-05-18T03:43:24.451Z,41.83
2019-05-18T03:45:54.562Z,41.80
2019-05-18T03:48:24.100Z,39.47
2019-05-18T03:50:53.625Z,39.87
2019-05-18T03:53:23.128Z,39.13
2019-05-18T03:55:53.236Z,37.50
2019-05-18T03:58:22.749Z,38.10
2019-05-18T04:00:52.269Z,36.60
2019-05-18T04:03:21.784Z,37.03
2019-05-18T04:05:51.277Z,36.80
2019-05-18T04:08:20.790Z,37.70
2019-05-18T04:10:50.294Z,37.83
2019-05-18T04:13:19.794Z,37.43
2019-05-18T04:15:49.292Z,37.23
2019-05-18T04:18:18.833Z,37.23
2019-05-18T04:20:48.372Z,37.50
2019-05-18T04:23:17.898Z,37.45
2019-05-18T04:25:47.418Z,39.45
2019-05-18T04:28:16.937Z,38.53
2019-05-18T04:30:46.477Z,38.23
2019-05-18T04:33:15.961Z,39.55
2019-05-18T04:35:45.481Z,41.00
2019-05-18T04:38:14.990Z,42.87
2019-05-18T04:40:44.556Z,42.30
2019-05-18T04:43:14.073Z,45.60
2019-05-18T04:45:43.578Z,42.20
2019-05-18T04:48:13.103Z,44.03
2019-05-18T04:50:42.639Z,43.90
2019-05-18T04:53:12.160Z,44.75
2019-05-18T04:55:41.657Z,44.27
2019-05-18T04:58:11.172Z,43.50
2019-05-18T05:00:40.681Z,44.40
2019-05-18T05:03:10.191Z,43.90
2019-05-18T05:05:39.715Z,44.30
2019-05-18T05:08:09.220Z,45.30
2019-05-18T05:10:38.721Z,45.70
2019-05-18T05:13:08.396Z,46.00
2019-05-18T05:15:37.916Z,45.23
2019-05-18T05:18:07.419Z,47.03
2019-05-18T05:20:36.958Z,47.48
2019-05-18T05:23:06.456Z,45.70
2019-05-18T05:25:35.959Z,48.20
2019-05-18T05:28:05.475Z,48.00
2019-05-18T05:30:34.990Z,50.92
2019-05-18T05:33:04.598Z,50.57
2019-05-18T05:35:34.268Z,51.43
2019-05-18T05:38:05.511Z,48.70
2019-05-18T05:40:35.013Z,51.42
2019-05-18T05:43:04.539Z,52.20
2019-05-18T05:45:34.043Z,49.20
2019-05-18T05:48:03.653Z,48.28
2019-05-18T05:50:36.487Z,49.33
2019-05-18T05:53:04.548Z,49.73
2019-05-18T05:55:34.055Z,51.00
2019-05-18T05:58:03.570Z,51.67
2019-05-18T06:00:33.057Z,51.90
2019-05-18T06:03:02.576Z,49.08
2019-05-18T06:05:32.069Z,46.90
2019-05-18T06:08:01.581Z,47.80
2019-05-18T06:10:31.100Z,47.85
2019-05-18T06:13:00.614Z,46.00
2019-05-18T06:15:30.117Z,44.98
2019-05-18T06:17:59.622Z,43.40
2019-05-18T06:20:29.143Z,45.50
2019-05-18T06:22:58.731Z,43.80
2019-05-18T06:25:28.247Z,41.88
2019-05-18T06:27:57.782Z,42.17
2019-05-18T06:30:27.292Z,43.30
2019-05-18T06:32:56.794Z,45.53
2019-05-18T06:35:26.295Z,45.87
2019-05-18T06:37:55.832Z,42.15
2019-05-18T06:40:25.332Z,41.92
2019-05-18T06:42:54.837Z,40.57
2019-05-18T06:45:24.427Z,39.27
2019-05-18T06:47:53.945Z,38.03
2019-05-18T06:50:29.246Z,38.03
2019-05-18T06:52:59.025Z,37.93
2019-05-18T06:55:28.536Z,39.30
2019-05-18T06:57:58.448Z,37.00
2019-05-18T07:00:28.036Z,37.30
2019-05-18T07:02:57.558Z,34.75
2019-05-18T07:05:27.090Z,34.48
2019-05-18T07:07:56.589Z,33.10
2019-05-18T07:10:26.106Z,32.50
2019-05-18T07:12:55.610Z,33.50
2019-05-18T07:15:25.153Z,31.45
2019-05-18T07:17:56.143Z,32.63
2019-05-18T07:20:25.670Z,28.52
2019-05-18T07:22:55.156Z,27.45
2019-05-18T07:25:24.671Z,29.97
2019-05-18T07:27:54.186Z,29.80
2019-05-18T07:30:23.716Z,25.73
2019-05-18T07:32:53.249Z,26.12
2019-05-18T07:35:22.855Z,29.60
2019-05-18T07:37:52.395Z,30.30
2019-05-18T07:40:21.941Z,30.17
2019-05-18T07:42:51.437Z,32.17
2019-05-18T07:45:20.996Z,32.70
2019-05-18T07:47:50.534Z,32.53
2019-05-18T07:50:20.127Z,31.70
2019-05-18T07:52:49.633Z,31.50
2019-05-18T07:55:19.169Z,30.97
2019-05-18T07:57:48.684Z,29.77
2019-05-18T08:00:18.240Z,28.07
2019-05-18T08:02:47.765Z,27.90
2019-05-18T08:05:17.368Z,30.00
2019-05-18T08:07:46.918Z,26.50
2019-05-18T08:10:19.607Z,26.00
2019-05-18T08:12:49.129Z,25.60
2019-05-18T08:15:19.708Z,27.07
2019-05-18T08:17:50.209Z,28.35
2019-05-18T08:20:19.741Z,24.45
2019-05-18T08:22:49.266Z,25.10
2019-05-18T08:25:18.949Z,24.05
2019-05-18T08:27:48.473Z,23.50
2019-05-18T08:30:18.125Z,25.02
2019-05-18T08:32:47.650Z,25.10
2019-05-18T08:35:17.248Z,25.83
2019-05-18T08:37:46.770Z,23.73
2019-05-18T08:40:16.684Z,20.90
2019-05-18T08:42:46.211Z,20.10
2019-05-18T08:45:16.059Z,17.98
2019-05-18T08:47:45.601Z,18.20
2019-05-18T08:50:15.238Z,16.43
2019-05-18T08:52:44.765Z,14.10
2019-05-18T08:55:14.367Z,14.47
2019-05-18T08:57:43.895Z,13.90
2019-05-18T09:00:13.714Z,12.13
2019-05-18T09:02:43.235Z,12.77
2019-05-18T09:05:14.050Z,13.25
2019-05-18T09:07:43.595Z,13.05
2019-05-18T09:10:13.375Z,14.68
2019-05-18T09:12:44.050Z,13.68
2019-05-18T09:15:14.040Z,12.80
2019-05-18T09:17:43.566Z,12.90
2019-05-18T09:20:14.150Z,12.60
2019-05-18T09:22:43.805Z,11.73
2019-05-18T09:25:13.320Z,10.60
2019-05-18T09:27:42.887Z,11.38
2019-05-18T09:30:13.810Z,10.80
2019-05-18T09:32:43.400Z,10.93
2019-05-18T09:35:13.201Z,10.80
2019-05-18T09:37:42.712Z,11.10
2019-05-18T09:40:13.121Z,9.98
2019-05-18T09:42:42.674Z,9.20
2019-05-18T09:45:12.941Z,8.67
2019-05-18T09:47:42.468Z,8.85
2019-05-18T09:50:12.319Z,8.13
2019-05-18T09:52:45.380Z,8.28
2019-05-18T09:55:13.921Z,9.20
2019-05-18T09:57:43.451Z,9.10
2019-05-18T10:00:14.959Z,8.48
2019-05-18T10:02:44.584Z,8.90
2019-05-18T10:05:14.306Z,8.20
2019-05-18T10:07:43.814Z,6.77
2019-05-18T10:10:13.504Z,7.30
2019-05-18T10:12:43.038Z,7.20
2019-05-18T10:15:12.808Z,7.20
2019-05-18T10:17:42.369Z,6.60
2019-05-18T10:20:12.469Z,6.85
2019-05-18T10:22:55.581Z,6.03
2019-05-18T10:25:13.365Z,4.95
2019-05-18T10:27:43.880Z,5.35
2019-05-18T10:30:13.571Z,4.95
2019-05-18T10:32:43.106Z,5.20
2019-05-18T10:35:12.688Z,4.83
2019-05-18T10:37:42.231Z,4.90
2019-05-18T10:40:11.910Z,4.83
2019-05-18T10:42:41.506Z,5.08
2019-05-18T10:45:11.706Z,5.05
2019-05-18T10:47:41.232Z,6.03
2019-05-18T10:50:10.742Z,6.10
2019-05-18T10:52:40.451Z,5.42
2019-05-18T10:55:10.187Z,5.40
2019-05-18T10:57:39.798Z,5.75
2019-05-18T11:00:10.304Z,6.10
2019-05-18T11:02:39.821Z,6.00
2019-05-18T11:05:09.820Z,5.00
2019-05-18T11:07:39.414Z,5.55
2019-05-18T11:10:09.666Z,5.30
2019-05-18T11:12:39.338Z,5.00
2019-05-18T11:15:10.896Z,4.33
2019-05-18T11:17:40.506Z,4.60
2019-05-18T11:20:10.606Z,4.20
2019-05-18T11:22:40.253Z,4.37
2019-05-18T11:25:10.119Z,4.20
2019-05-18T11:27:39.688Z,3.90
2019-05-18T11:30:10.330Z,3.87
2019-05-18T11:32:39.926Z,3.80
2019-05-18T11:35:10.142Z,3.62
2019-05-18T11:37:39.640Z,3.80
2019-05-18T11:40:09.659Z,4.70
2019-05-18T11:42:39.191Z,6.05
2019-05-18T11:45:10.200Z,5.60
2019-05-18T11:47:40.699Z,5.50
2019-05-18T11:50:10.859Z,5.47
2019-05-18T11:52:40.652Z,5.23
2019-05-18T11:55:10.637Z,5.03
2019-05-18T11:57:40.244Z,5.30
2019-05-18T12:00:11.164Z,6.10
2019-05-18T12:02:40.701Z,6.25
2019-05-18T12:05:10.503Z,6.12
2019-05-18T12:07:40.123Z,6.10
2019-05-18T12:10:10.294Z,6.60
2019-05-18T12:12:39.907Z,5.50
2019-05-18T12:15:10.992Z,6.30
2019-05-18T12:17:40.597Z,6.17
2019-05-18T12:20:11.092Z,6.63
2019-05-18T12:22:40.598Z,6.03
2019-05-18T12:25:10.300Z,6.30
2019-05-18T12:27:40.126Z,6.30
2019-05-18T12:30:10.628Z,6.00
2019-05-18T12:32:40.746Z,6.17
2019-05-18T12:35:10.493Z,5.80
2019-05-18T12:37:40.093Z,6.90
2019-05-18T12:40:11.457Z,6.37
2019-05-18T12:42:40.945Z,6.10
2019-05-18T12:45:10.709Z,6.20
2019-05-18T12:47:40.245Z,6.40
2019-05-18T12:50:10.515Z,6.93
2019-05-18T12:52:40.049Z,6.20
2019-05-18T12:55:09.754Z,6.70
2019-05-18T12:57:39.293Z,6.10
2019-05-18T13:00:09.530Z,5.83
2019-05-18T13:02:39.079Z,6.20
2019-05-18T13:05:10.717Z,6.40
2019-05-18T13:07:40.878Z,5.33
2019-05-18T13:10:10.948Z,5.53
2019-05-18T13:12:40.481Z,5.90
2019-05-18T13:15:10.679Z,5.43
2019-05-18T13:17:40.256Z,5.95
2019-05-18T13:20:11.066Z,6.40
2019-05-18T13:22:40.765Z,5.67
2019-05-18T13:25:10.982Z,6.55
2019-05-18T13:27:41.479Z,6.40
2019-05-18T13:30:11.648Z,5.62
2019-05-18T13:32:41.279Z,5.80
2019-05-18T13:35:10.991Z,6.20
2019-05-18T13:37:40.537Z,5.70
2019-05-18T13:40:10.913Z,5.67
2019-05-18T13:42:40.490Z,5.78
2019-05-18T13:45:10.565Z,5.70
2019-05-18T13:47:40.064Z,5.17
2019-05-18T13:50:11.948Z,5.03
2019-05-18T13:52:41.536Z,5.10
2019-05-18T13:55:11.235Z,4.60
2019-05-18T13:57:40.750Z,4.50
2019-05-18T14:00:10.714Z,5.30
2019-05-18T14:02:40.238Z,5.40
2019-05-18T14:05:10.120Z,4.60
2019-05-18T14:07:39.648Z,4.75
2019-05-18T14:10:12.637Z,4.70
2019-05-18T14:12:42.465Z,4.92
2019-05-18T14:15:12.333Z,4.33
2019-05-18T14:17:41.837Z,4.10
2019-05-18T14:20:11.506Z,3.50
2019-05-18T14:22:41.018Z,4.27
2019-05-18T14:25:19.237Z,4.17
2019-05-18T14:27:41.771Z,4.03
2019-05-18T14:30:11.471Z,3.50
2019-05-18T14:32:40.991Z,5.45
2019-05-18T14:35:10.968Z,3.83
2019-05-18T14:37:40.513Z,3.40
2019-05-18T14:40:10.293Z,4.10
2019-05-18T14:42:39.793Z,2.70
2019-05-18T14:45:10.448Z,2.80
2019-05-18T14:47:40.071Z,2.80
2019-05-18T14:50:10.650Z,2.30
2019-05-18T14:52:40.128Z,2.77
2019-05-18T14:55:09.826Z,2.30
2019-05-18T14:57:39.309Z,2.40
2019-05-18T15:00:10.499Z,2.12
2019-05-18T15:02:40.102Z,1.90
2019-05-18T15:05:09.803Z,1.90
2019-05-18T15:07:39.309Z,1.82
2019-05-18T15:10:09.505Z,1.80
2019-05-18T15:12:39.011Z,2.20
2019-05-18T15:15:09.363Z,1.80
2019-05-18T15:17:38.886Z,1.90
2019-05-18T15:20:09.410Z,1.80
2019-05-18T15:22:39.190Z,2.10
2019-05-18T15:25:08.784Z,1.98
2019-05-18T15:27:39.291Z,2.20
2019-05-18T15:30:09.220Z,2.10
2019-05-18T15:32:38.831Z,2.17
2019-05-18T15:35:08.730Z,1.90
2019-05-18T15:37:38.283Z,1.90
2019-05-18T15:40:08.204Z,2.50
2019-05-18T15:42:37.726Z,2.58
2019-05-18T15:45:07.458Z,2.67
2019-05-18T15:47:36.969Z,2.90
2019-05-18T15:50:06.795Z,4.10
2019-05-18T15:52:37.367Z,3.40
2019-05-18T15:55:07.656Z,3.40
2019-05-18T15:57:37.439Z,3.10
2019-05-18T16:00:07.883Z,2.98
2019-05-18T16:02:37.461Z,2.97
2019-05-18T16:05:07.248Z,3.40
2019-05-18T16:07:37.958Z,9.10
2019-05-18T16:10:07.859Z,11.08
2019-05-18T16:12:37.451Z,3.27
2019-05-18T16:15:08.371Z,3.40
2019-05-18T16:17:39.944Z,3.35
2019-05-18T16:20:09.732Z,3.50
2019-05-18T16:22:39.316Z,3.70
2019-05-18T16:25:10.188Z,3.53
2019-05-18T16:27:39.698Z,3.70
2019-05-18T16:30:09.787Z,3.98
2019-05-18T16:32:39.283Z,4.20
2019-05-18T16:35:09.037Z,4.70
2019-05-18T16:37:38.563Z,4.22
2019-05-18T16:40:08.586Z,3.83
2019-05-18T16:42:38.093Z,4.67
2019-05-18T16:45:08.672Z,4.62
2019-05-18T16:47:38.273Z,4.85
2019-05-18T16:50:08.858Z,4.30
2019-05-18T16:52:38.367Z,4.65
2019-05-18T16:55:08.337Z,4.20
2019-05-18T16:57:37.848Z,4.37
2019-05-18T17:00:09.508Z,4.10
2019-05-18T17:02:39.017Z,5.30
2019-05-18T17:05:08.929Z,12.07
2019-05-18T17:07:38.453Z,7.70
2019-05-18T17:10:08.256Z,6.40
2019-05-18T17:12:37.801Z,7.20
2019-05-18T17:15:08.701Z,6.17
2019-05-18T17:17:38.230Z,4.60
2019-05-18T17:20:08.121Z,4.17
2019-05-18T17:22:37.668Z,10.00
2019-05-18T17:25:08.389Z,35.67
2019-05-18T17:27:37.918Z,39.88
2019-05-18T17:30:08.232Z,41.37
2019-05-18T17:32:37.770Z,21.25
2019-05-18T17:35:07.676Z,73.70
2019-05-18T17:37:38.182Z,25.97
2019-05-18T17:40:07.866Z,19.47
2019-05-18T17:42:37.383Z,8.10
2019-05-18T17:45:07.141Z,5.43
2019-05-18T17:47:36.645Z,13.70
2019-05-18T17:50:06.518Z,21.37
2019-05-18T17:52:36.136Z,9.30
2019-05-18T17:55:05.836Z,4.50
2019-05-18T17:57:35.395Z,4.70
2019-05-18T18:00:05.332Z,4.90
2019-05-18T18:02:35.253Z,4.63
2019-05-18T18:05:05.849Z,3.80
2019-05-18T18:07:35.437Z,4.00
2019-05-18T18:10:05.522Z,4.00
2019-05-18T18:12:35.101Z,3.65
2019-05-18T18:15:05.354Z,4.17
2019-05-18T18:17:35.065Z,4.00
2019-05-18T18:20:04.979Z,4.30
2019-05-18T18:22:34.507Z,4.50
2019-05-18T18:25:04.238Z,4.70
2019-05-18T18:27:33.772Z,4.17
2019-05-18T18:30:05.059Z,4.50
2019-05-18T18:32:34.638Z,4.60
2019-05-18T18:35:04.318Z,4.50
2019-05-18T18:37:33.861Z,4.70
2019-05-18T18:40:03.533Z,4.60
2019-05-18T18:42:33.090Z,4.70
2019-05-18T18:45:02.627Z,4.70
2019-05-18T18:47:32.221Z,4.73
2019-05-18T18:50:01.755Z,4.70
2019-05-18T18:52:31.294Z,5.30
2019-05-18T18:55:00.909Z,5.00
2019-05-18T18:57:40.637Z,5.70
2019-05-18T19:00:01.797Z,5.75
2019-05-18T19:02:32.834Z,5.97
2019-05-18T19:05:02.347Z,5.50
2019-05-18T19:07:31.871Z,4.70
2019-05-18T19:10:02.298Z,4.70
2019-05-18T19:12:31.833Z,4.80
2019-05-18T19:15:02.086Z,4.92
2019-05-18T19:17:32.623Z,4.80
2019-05-18T19:20:02.154Z,5.63
2019-05-18T19:22:31.676Z,6.77
2019-05-18T19:25:01.370Z,8.20
2019-05-18T19:27:30.898Z,7.58
2019-05-18T19:30:00.513Z,7.20
2019-05-18T19:32:30.054Z,6.80
2019-05-18T19:34:59.574Z,6.62
2019-05-18T19:37:29.130Z,6.35
2019-05-18T19:39:58.688Z,6.37
2019-05-18T19:42:28.264Z,7.00
2019-05-18T19:44:57.819Z,6.37
2019-05-18T19:47:28.352Z,6.97
2019-05-18T19:49:57.898Z,6.80
2019-05-18T19:52:27.435Z,7.20
2019-05-18T19:54:56.970Z,7.30
2019-05-18T19:57:26.484Z,6.83
2019-05-18T19:59:56.061Z,7.80
2019-05-18T20:02:25.669Z,7.70
2019-05-18T20:05:07.506Z,7.40
2019-05-18T20:07:26.447Z,8.40
2019-05-18T20:09:55.986Z,8.20
2019-05-18T20:12:25.519Z,8.30
2019-05-18T20:14:55.074Z,8.13
2019-05-18T20:17:24.659Z,8.40
2019-05-18T20:19:54.209Z,7.80
2019-05-18T20:22:23.741Z,8.80
2019-05-18T20:24:53.330Z,7.80
2019-05-18T20:27:22.879Z,8.40
2019-05-18T20:29:52.445Z,7.87
2019-05-18T20:32:21.951Z,8.37
2019-05-18T20:34:51.518Z,7.80
2019-05-18T20:37:21.079Z,8.27
2019-05-18T20:39:51.718Z,7.25
2019-05-18T20:42:21.265Z,7.78
2019-05-18T20:44:50.870Z,8.33
2019-05-18T20:47:20.395Z,7.78
2019-05-18T20:49:50.017Z,8.80
2019-05-18T20:52:19.563Z,8.95
2019-05-18T20:54:49.182Z,8.50
2019-05-18T20:57:18.708Z,8.20
2019-05-18T20:59:48.327Z,8.40
2019-05-18T21:02:17.876Z,8.30
2019-05-18T21:04:47.418Z,12.30
2019-05-18T21:07:16.969Z,14.33
2019-05-18T21:09:46.527Z,14.90
2019-05-18T21:12:16.074Z,16.50
2019-05-18T21:14:45.628Z,15.20
2019-05-18T21:17:15.146Z,13.70
2019-05-18T21:19:44.824Z,12.80
2019-05-18T21:22:14.407Z,10.50
2019-05-18T21:24:43.952Z,10.47
2019-05-18T21:27:13.496Z,9.05
2019-05-18T21:29:43.055Z,8.60
2019-05-18T21:32:12.628Z,8.38
2019-05-18T21:34:42.141Z,8.23
2019-05-18T21:37:11.728Z,9.27
2019-05-18T21:39:41.277Z,10.07
2019-05-18T21:42:10.873Z,10.25
2019-05-18T21:44:40.427Z,9.90
2019-05-18T21:47:09.930Z,9.40
2019-05-18T21:49:39.457Z,9.20
2019-05-18T21:52:08.980Z,9.50
2019-05-18T21:54:38.509Z,8.90
2019-05-18T21:57:08.029Z,9.70
2019-05-18T21:59:37.545Z,9.88
2019-05-18T22:02:07.751Z,10.60
2019-05-18T22:04:38.332Z,9.90
2019-05-18T22:07:07.890Z,9.70
2019-05-18T22:09:38.427Z,10.45
2019-05-18T22:12:07.922Z,9.50
2019-05-18T22:14:37.432Z,9.20
2019-05-18T22:17:07.088Z,9.27
2019-05-18T22:19:36.598Z,9.07
2019-05-18T22:22:06.138Z,9.80
2019-05-18T22:24:35.662Z,10.13
2019-05-18T22:27:05.176Z,10.13
2019-05-18T22:29:34.703Z,10.23
2019-05-18T22:32:04.205Z,9.97
2019-05-18T22:34:34.798Z,9.26
2019-05-18T22:37:04.320Z,10.85
2019-05-18T22:39:33.863Z,10.80
2019-05-18T22:42:03.440Z,9.90
2019-05-18T22:44:32.963Z,9.83
2019-05-18T22:47:02.513Z,10.27
2019-05-18T22:49:32.050Z,11.03
2019-05-18T22:52:01.575Z,10.88
2019-05-18T22:54:31.126Z,10.60
2019-05-18T22:57:00.658Z,11.10
2019-05-18T22:59:30.244Z,10.23
2019-05-18T23:01:59.798Z,10.50
2019-05-18T23:04:30.392Z,11.40
2019-05-18T23:06:59.926Z,11.10
2019-05-18T23:09:30.543Z,10.50
2019-05-18T23:12:00.072Z,10.95
2019-05-18T23:14:29.639Z,10.50
2019-05-18T23:16:59.192Z,11.20
2019-05-18T23:19:28.711Z,11.10
2019-05-18T23:21:58.255Z,11.45
2019-05-18T23:24:27.864Z,11.75
2019-05-18T23:26:57.416Z,11.20
2019-05-18T23:29:26.940Z,11.02
2019-05-18T23:31:56.471Z,11.10
2019-05-18T23:34:26.835Z,11.53
2019-05-18T23:36:56.499Z,10.90
2019-05-18T23:39:26.027Z,10.90
2019-05-18T23:41:55.552Z,10.88
2019-05-18T23:44:25.107Z,11.50
2019-05-18T23:46:54.669Z,10.38
2019-05-18T23:49:24.197Z,11.20
2019-05-18T23:51:53.880Z,11.18
2019-05-18T23:54:23.419Z,10.88
2019-05-18T23:56:52.940Z,10.90
2019-05-18T23:59:22.453Z,10.82
